PSMBK SKCC-SPGM
Flight info
| Callsign | PSMBK |
|---|---|
| Flight time | 2h 38m |
| Altitude | 36000 |
| Route | UMPEX DCT VVC DCT MUBOD DCT DORAN DCT COCOS |
| Aircraft | C25B/L-VGDW/C |
Departure
| Time | 2026-05-06 17:24 |
|---|---|
| Airport | Camilo Daza International Airport (SKCC) |
Arrival
| Time | 2026-05-06 20:02 |
|---|---|
| Airport | Tingo Maria Airport (SPGM) |
| Time | Latitude | Longitude | Altitude | Speed | Heading |
|---|---|---|---|---|---|
| 2026-05-06 16:17 | 7.92927 | -72.50890 | 1027 ft | 0 kts | 26° |
| 2026-05-06 17:18 | 7.92932 | -72.50885 | 1027 ft | 1 kts | 84° |
| 2026-05-06 17:18 | 7.92931 | -72.50883 | 1027 ft | 0 kts | 112° |
| 2026-05-06 17:18 | 7.92922 | -72.50883 | 1027 ft | 5 kts | 227° |
| 2026-05-06 17:19 | 7.92935 | -72.50949 | 1027 ft | 12 kts | 296° |
| 2026-05-06 17:19 | 7.92939 | -72.50993 | 1027 ft | 10 kts | 213° |
| 2026-05-06 17:19 | 7.92870 | -72.51031 | 1027 ft | 14 kts | 208° |
| 2026-05-06 17:19 | 7.92867 | -72.51073 | 1027 ft | 13 kts | 336° |
| 2026-05-06 17:20 | 7.92963 | -72.51090 | 1026 ft | 17 kts | 16° |
| 2026-05-06 17:20 | 7.93123 | -72.51039 | 1019 ft | 28 kts | 17° |
| 2026-05-06 17:20 | 7.93324 | -72.50977 | 1007 ft | 32 kts | 17° |
| 2026-05-06 17:20 | 7.93433 | -72.50955 | 1003 ft | 7 kts | 86° |
| 2026-05-06 17:21 | 7.93421 | -72.50947 | 1003 ft | 0 kts | 197° |
| 2026-05-06 17:23 | 7.93330 | -72.50976 | 1007 ft | 55 kts | 197° |
| 2026-05-06 17:23 | 7.92643 | -72.51188 | 1028 ft | 146 kts | 196° |
| 2026-05-06 17:24 | 7.91539 | -72.51522 | 1562 ft | 176 kts | 194° |
| 2026-05-06 17:24 | 7.90315 | -72.51929 | 2369 ft | 200 kts | 192° |
| 2026-05-06 17:24 | 7.88871 | -72.52334 | 3346 ft | 222 kts | 188° |
| 2026-05-06 17:24 | 7.87379 | -72.52431 | 4768 ft | 215 kts | 169° |
| 2026-05-06 17:25 | 7.85863 | -72.52289 | 6075 ft | 219 kts | 172° |
| 2026-05-06 17:25 | 7.84338 | -72.52230 | 7431 ft | 222 kts | 173° |
| 2026-05-06 17:25 | 7.82777 | -72.52131 | 8697 ft | 225 kts | 173° |
| 2026-05-06 17:25 | 7.81240 | -72.52034 | 10135 ft | 225 kts | 173° |
| 2026-05-06 17:26 | 7.79684 | -72.51683 | 11133 ft | 235 kts | 156° |
| 2026-05-06 17:26 | 7.78177 | -72.50987 | 12171 ft | 241 kts | 150° |
| 2026-05-06 17:26 | 7.76652 | -72.50249 | 13315 ft | 246 kts | 149° |
| 2026-05-06 17:26 | 7.75089 | -72.49491 | 14362 ft | 253 kts | 148° |
| 2026-05-06 17:27 | 7.73469 | -72.48706 | 15301 ft | 262 kts | 149° |
| 2026-05-06 17:27 | 7.71803 | -72.47892 | 16260 ft | 270 kts | 149° |
| 2026-05-06 17:27 | 7.70008 | -72.47212 | 17219 ft | 284 kts | 163° |
| 2026-05-06 17:27 | 7.67996 | -72.47021 | 18195 ft | 296 kts | 174° |
| 2026-05-06 17:28 | 7.65921 | -72.46969 | 19104 ft | 301 kts | 174° |
| 2026-05-06 17:28 | 7.63834 | -72.46920 | 19992 ft | 304 kts | 175° |
| 2026-05-06 17:28 | 7.61704 | -72.46852 | 20939 ft | 307 kts | 177° |
| 2026-05-06 17:28 | 7.59564 | -72.47119 | 21895 ft | 314 kts | 192° |
| 2026-05-06 17:29 | 7.57469 | -72.47771 | 22907 ft | 317 kts | 194° |
| 2026-05-06 17:29 | 7.55338 | -72.48432 | 23778 ft | 322 kts | 196° |
| 2026-05-06 17:29 | 7.53184 | -72.49118 | 24543 ft | 327 kts | 196° |
| 2026-05-06 17:29 | 7.51006 | -72.49816 | 25302 ft | 330 kts | 195° |
| 2026-05-06 17:30 | 7.48777 | -72.50418 | 26031 ft | 334 kts | 192° |
| 2026-05-06 17:30 | 7.46503 | -72.50992 | 26752 ft | 338 kts | 193° |
| 2026-05-06 17:30 | 7.44206 | -72.51597 | 27435 ft | 344 kts | 193° |
| 2026-05-06 17:30 | 7.41879 | -72.52205 | 28157 ft | 347 kts | 194° |
| 2026-05-06 17:31 | 7.39551 | -72.52803 | 28870 ft | 350 kts | 193° |
| 2026-05-06 17:31 | 7.37171 | -72.53414 | 29568 ft | 356 kts | 194° |
| 2026-05-06 17:31 | 7.34757 | -72.54037 | 30227 ft | 361 kts | 194° |
| 2026-05-06 17:31 | 7.32280 | -72.54680 | 30819 ft | 364 kts | 194° |
| 2026-05-06 17:32 | 7.29855 | -72.55306 | 31432 ft | 365 kts | 194° |
| 2026-05-06 17:32 | 7.27382 | -72.55943 | 31983 ft | 368 kts | 194° |
| 2026-05-06 17:32 | 7.24883 | -72.56587 | 32530 ft | 371 kts | 194° |
| 2026-05-06 17:32 | 7.22378 | -72.57235 | 33099 ft | 372 kts | 194° |
| 2026-05-06 17:33 | 7.19850 | -72.57888 | 33621 ft | 375 kts | 194° |
| 2026-05-06 17:33 | 7.17304 | -72.58545 | 34121 ft | 378 kts | 194° |
| 2026-05-06 17:33 | 7.14743 | -72.59206 | 34567 ft | 381 kts | 194° |
| 2026-05-06 17:33 | 7.12201 | -72.59861 | 35007 ft | 383 kts | 194° |
| 2026-05-06 17:34 | 7.09615 | -72.60528 | 35461 ft | 384 kts | 194° |
| 2026-05-06 17:34 | 7.07024 | -72.61197 | 35901 ft | 385 kts | 194° |
| 2026-05-06 17:34 | 7.04415 | -72.61870 | 36302 ft | 387 kts | 194° |
| 2026-05-06 17:34 | 7.01784 | -72.62548 | 36674 ft | 389 kts | 194° |
| 2026-05-06 17:35 | 6.99194 | -72.63216 | 37092 ft | 390 kts | 194° |
| 2026-05-06 17:35 | 6.96562 | -72.63895 | 37445 ft | 392 kts | 194° |
| 2026-05-06 17:35 | 6.93911 | -72.64579 | 37776 ft | 394 kts | 194° |
| 2026-05-06 17:36 | 6.88583 | -72.65952 | 38533 ft | 396 kts | 194° |
| 2026-05-06 17:36 | 6.85901 | -72.66643 | 38805 ft | 399 kts | 194° |
| 2026-05-06 17:36 | 6.83202 | -72.67338 | 39046 ft | 401 kts | 194° |
| 2026-05-06 17:36 | 6.80500 | -72.68033 | 39280 ft | 402 kts | 194° |
| 2026-05-06 17:37 | 6.77767 | -72.68739 | 39471 ft | 405 kts | 194° |
| 2026-05-06 17:37 | 6.75014 | -72.69446 | 39666 ft | 408 kts | 194° |
| 2026-05-06 17:37 | 6.72291 | -72.70149 | 39923 ft | 409 kts | 194° |
| 2026-05-06 17:37 | 6.69522 | -72.70862 | 40099 ft | 413 kts | 194° |
| 2026-05-06 17:38 | 6.63863 | -72.72319 | 40087 ft | 427 kts | 194° |
| 2026-05-06 17:38 | 6.58029 | -72.73820 | 40092 ft | 438 kts | 194° |
| 2026-05-06 17:39 | 6.52046 | -72.75361 | 40078 ft | 447 kts | 194° |
| 2026-05-06 17:39 | 6.45997 | -72.76915 | 40080 ft | 455 kts | 194° |
| 2026-05-06 17:40 | 6.39811 | -72.78508 | 40083 ft | 461 kts | 194° |
| 2026-05-06 17:40 | 6.33556 | -72.80118 | 40087 ft | 466 kts | 194° |
| 2026-05-06 17:41 | 6.27239 | -72.81740 | 40050 ft | 470 kts | 194° |
| 2026-05-06 17:41 | 6.20883 | -72.83374 | 40084 ft | 473 kts | 194° |
| 2026-05-06 17:42 | 6.14492 | -72.85016 | 40078 ft | 476 kts | 194° |
| 2026-05-06 17:42 | 6.08094 | -72.86659 | 40114 ft | 479 kts | 194° |
| 2026-05-06 17:43 | 6.01605 | -72.88325 | 40115 ft | 481 kts | 194° |
| 2026-05-06 17:43 | 5.95097 | -72.89996 | 40142 ft | 483 kts | 194° |
| 2026-05-06 17:44 | 5.88562 | -72.91675 | 40138 ft | 484 kts | 194° |
| 2026-05-06 17:44 | 5.82063 | -72.93341 | 40150 ft | 486 kts | 194° |
| 2026-05-06 17:45 | 5.75505 | -72.95026 | 40152 ft | 486 kts | 195° |
| 2026-05-06 17:45 | 5.68933 | -72.96709 | 40133 ft | 487 kts | 194° |
| 2026-05-06 17:46 | 5.62362 | -72.98398 | 40151 ft | 484 kts | 194° |
| 2026-05-06 17:46 | 5.55983 | -73.00031 | 40141 ft | 468 kts | 194° |
| 2026-05-06 17:47 | 5.49742 | -73.01633 | 40134 ft | 457 kts | 194° |
| 2026-05-06 17:47 | 5.43641 | -73.03195 | 40134 ft | 448 kts | 194° |
| 2026-05-06 17:48 | 5.37672 | -73.04725 | 40129 ft | 442 kts | 195° |
| 2026-05-06 17:48 | 5.31746 | -73.06243 | 40127 ft | 437 kts | 195° |
| 2026-05-06 17:49 | 5.25872 | -73.07749 | 40129 ft | 433 kts | 194° |
| 2026-05-06 17:49 | 5.20072 | -73.09233 | 40119 ft | 430 kts | 194° |
| 2026-05-06 17:50 | 5.14274 | -73.10718 | 40120 ft | 428 kts | 195° |
| 2026-05-06 17:50 | 5.08498 | -73.12196 | 40098 ft | 427 kts | 195° |
| 2026-05-06 17:51 | 5.02757 | -73.13667 | 40096 ft | 425 kts | 195° |
| 2026-05-06 17:51 | 4.97031 | -73.15130 | 40094 ft | 424 kts | 195° |
| 2026-05-06 17:52 | 4.91347 | -73.16586 | 40076 ft | 423 kts | 194° |
| 2026-05-06 17:52 | 4.85636 | -73.18046 | 40076 ft | 422 kts | 195° |
| 2026-05-06 17:53 | 4.79941 | -73.19501 | 40049 ft | 422 kts | 195° |
| 2026-05-06 17:53 | 4.74288 | -73.20950 | 40048 ft | 421 kts | 195° |
| 2026-05-06 17:54 | 4.68602 | -73.22400 | 40050 ft | 421 kts | 195° |
| 2026-05-06 17:54 | 4.62932 | -73.23853 | 40071 ft | 420 kts | 195° |
| 2026-05-06 17:55 | 4.57266 | -73.25300 | 40068 ft | 419 kts | 195° |
| 2026-05-06 17:55 | 4.51644 | -73.26735 | 40048 ft | 419 kts | 195° |
| 2026-05-06 17:56 | 4.45989 | -73.28182 | 40048 ft | 419 kts | 195° |
| 2026-05-06 17:56 | 4.41289 | -73.29382 | 40050 ft | 419 kts | 195° |
| 2026-05-06 17:57 | 4.35647 | -73.30824 | 40026 ft | 418 kts | 195° |
| 2026-05-06 17:57 | 4.29087 | -73.32498 | 40026 ft | 418 kts | 195° |
| 2026-05-06 17:58 | 4.24405 | -73.33694 | 40028 ft | 417 kts | 195° |
| 2026-05-06 17:58 | 4.18782 | -73.35131 | 40046 ft | 417 kts | 195° |
| 2026-05-06 17:59 | 4.13149 | -73.36566 | 40050 ft | 417 kts | 195° |
| 2026-05-06 17:59 | 4.07524 | -73.38005 | 40059 ft | 417 kts | 194° |
| 2026-05-06 18:00 | 4.01818 | -73.39024 | 40051 ft | 417 kts | 189° |
| 2026-05-06 18:00 | 3.96094 | -73.39983 | 40046 ft | 416 kts | 190° |
| 2026-05-06 18:01 | 3.90372 | -73.40934 | 40032 ft | 416 kts | 190° |
| 2026-05-06 18:01 | 3.84657 | -73.41882 | 40025 ft | 416 kts | 189° |
| 2026-05-06 18:02 | 3.78972 | -73.42830 | 40026 ft | 416 kts | 189° |
| 2026-05-06 18:02 | 3.73249 | -73.43779 | 40023 ft | 416 kts | 190° |
| 2026-05-06 18:03 | 3.67527 | -73.44734 | 40023 ft | 416 kts | 189° |
| 2026-05-06 18:03 | 3.61844 | -73.45674 | 40023 ft | 416 kts | 191° |
| 2026-05-06 18:04 | 3.56128 | -73.46629 | 40024 ft | 416 kts | 190° |
| 2026-05-06 18:04 | 3.50415 | -73.47575 | 40026 ft | 416 kts | 191° |
| 2026-05-06 18:05 | 3.44708 | -73.48528 | 40026 ft | 416 kts | 190° |
| 2026-05-06 18:05 | 3.39004 | -73.49471 | 40027 ft | 415 kts | 191° |
| 2026-05-06 18:06 | 3.33302 | -73.50421 | 40028 ft | 415 kts | 191° |
| 2026-05-06 18:06 | 3.27633 | -73.51362 | 40037 ft | 415 kts | 190° |
| 2026-05-06 18:07 | 3.21920 | -73.52311 | 40036 ft | 415 kts | 191° |
| 2026-05-06 18:07 | 3.16251 | -73.53252 | 40038 ft | 415 kts | 190° |
| 2026-05-06 18:08 | 3.10541 | -73.54201 | 40039 ft | 415 kts | 191° |
| 2026-05-06 18:08 | 3.04835 | -73.55148 | 40038 ft | 415 kts | 190° |
| 2026-05-06 18:09 | 2.99126 | -73.56096 | 40035 ft | 415 kts | 191° |
| 2026-05-06 18:09 | 2.93459 | -73.57038 | 40036 ft | 415 kts | 190° |
| 2026-05-06 18:10 | 2.87748 | -73.57984 | 40038 ft | 415 kts | 191° |
| 2026-05-06 18:10 | 2.82050 | -73.58931 | 40037 ft | 415 kts | 191° |
| 2026-05-06 18:11 | 2.76336 | -73.59879 | 40037 ft | 415 kts | 191° |
| 2026-05-06 18:11 | 2.70660 | -73.60820 | 40034 ft | 415 kts | 191° |
| 2026-05-06 18:12 | 2.64956 | -73.61769 | 40032 ft | 415 kts | 191° |
| 2026-05-06 18:12 | 2.59245 | -73.62714 | 40032 ft | 415 kts | 191° |
| 2026-05-06 18:13 | 2.53523 | -73.63666 | 40030 ft | 415 kts | 191° |
| 2026-05-06 18:13 | 2.47829 | -73.64609 | 40031 ft | 415 kts | 191° |
| 2026-05-06 18:14 | 2.42177 | -73.65546 | 40040 ft | 414 kts | 190° |
| 2026-05-06 18:14 | 2.36489 | -73.66488 | 40039 ft | 413 kts | 191° |
| 2026-05-06 18:15 | 2.30807 | -73.67434 | 40036 ft | 413 kts | 190° |
| 2026-05-06 18:15 | 2.25132 | -73.68375 | 40034 ft | 413 kts | 191° |
| 2026-05-06 18:16 | 2.19457 | -73.69312 | 40023 ft | 413 kts | 191° |
| 2026-05-06 18:16 | 2.13811 | -73.70251 | 40027 ft | 413 kts | 191° |
| 2026-05-06 18:17 | 2.08124 | -73.71193 | 40027 ft | 413 kts | 191° |
| 2026-05-06 18:17 | 2.02443 | -73.72137 | 40022 ft | 413 kts | 191° |
| 2026-05-06 18:18 | 1.96782 | -73.73073 | 40020 ft | 414 kts | 191° |
| 2026-05-06 18:18 | 1.91098 | -73.74016 | 40020 ft | 414 kts | 191° |
| 2026-05-06 18:19 | 1.85412 | -73.74957 | 40011 ft | 414 kts | 191° |
| 2026-05-06 18:19 | 1.79722 | -73.75902 | 40008 ft | 415 kts | 190° |
| 2026-05-06 18:20 | 1.74038 | -73.76676 | 40000 ft | 416 kts | 183° |
| 2026-05-06 18:20 | 1.68244 | -73.76932 | 40000 ft | 416 kts | 184° |
| 2026-05-06 18:21 | 1.62445 | -73.77226 | 40004 ft | 417 kts | 184° |
| 2026-05-06 18:21 | 1.56642 | -73.77499 | 39997 ft | 417 kts | 184° |
| 2026-05-06 18:22 | 1.50823 | -73.77783 | 39999 ft | 418 kts | 184° |
| 2026-05-06 18:22 | 1.45048 | -73.78063 | 39991 ft | 418 kts | 184° |
| 2026-05-06 18:23 | 1.39222 | -73.78345 | 39990 ft | 420 kts | 184° |
| 2026-05-06 18:23 | 1.33369 | -73.78627 | 39991 ft | 420 kts | 184° |
| 2026-05-06 18:24 | 1.27516 | -73.78911 | 39986 ft | 421 kts | 184° |
| 2026-05-06 18:24 | 1.21705 | -73.79193 | 39986 ft | 421 kts | 184° |
| 2026-05-06 18:25 | 1.15857 | -73.79476 | 39993 ft | 420 kts | 184° |
| 2026-05-06 18:25 | 1.10011 | -73.79759 | 39992 ft | 420 kts | 184° |
| 2026-05-06 18:26 | 1.04167 | -73.80043 | 39987 ft | 420 kts | 184° |
| 2026-05-06 18:26 | 0.98323 | -73.80322 | 39988 ft | 420 kts | 184° |
| 2026-05-06 18:27 | 0.92511 | -73.80604 | 39989 ft | 420 kts | 184° |
| 2026-05-06 18:27 | 0.86674 | -73.80886 | 39989 ft | 419 kts | 184° |
| 2026-05-06 18:28 | 0.80840 | -73.81169 | 39989 ft | 419 kts | 185° |
| 2026-05-06 18:28 | 0.75015 | -73.81452 | 39989 ft | 419 kts | 185° |
| 2026-05-06 18:29 | 0.69191 | -73.81732 | 39986 ft | 419 kts | 184° |
| 2026-05-06 18:29 | 0.63397 | -73.82014 | 39986 ft | 419 kts | 184° |
| 2026-05-06 18:30 | 0.57571 | -73.82295 | 39983 ft | 418 kts | 184° |
| 2026-05-06 18:30 | 0.51750 | -73.82576 | 39983 ft | 418 kts | 184° |
| 2026-05-06 18:31 | 0.45928 | -73.82857 | 39984 ft | 418 kts | 184° |
| 2026-05-06 18:31 | 0.40143 | -73.83137 | 39987 ft | 418 kts | 184° |
| 2026-05-06 18:32 | 0.34324 | -73.83419 | 39980 ft | 418 kts | 184° |
| 2026-05-06 18:32 | 0.28508 | -73.83700 | 39981 ft | 417 kts | 184° |
| 2026-05-06 18:33 | 0.22701 | -73.83982 | 39981 ft | 417 kts | 184° |
| 2026-05-06 18:33 | 0.16940 | -73.84261 | 39981 ft | 417 kts | 184° |
| 2026-05-06 18:34 | 0.11141 | -73.84542 | 39984 ft | 416 kts | 184° |
| 2026-05-06 18:34 | 0.05355 | -73.84821 | 39984 ft | 416 kts | 184° |
| 2026-05-06 18:35 | -0.00432 | -73.85100 | 39982 ft | 416 kts | 184° |
| 2026-05-06 18:35 | -0.06230 | -73.85381 | 39979 ft | 417 kts | 184° |
| 2026-05-06 18:36 | -0.12040 | -73.85661 | 39976 ft | 417 kts | 184° |
| 2026-05-06 18:36 | -0.17812 | -73.85940 | 39976 ft | 418 kts | 184° |
| 2026-05-06 18:37 | -0.22688 | -73.86176 | 39979 ft | 418 kts | 184° |
| 2026-05-06 18:37 | -0.29457 | -73.86504 | 39979 ft | 418 kts | 184° |
| 2026-05-06 18:38 | -0.35287 | -73.86787 | 39980 ft | 419 kts | 184° |
| 2026-05-06 18:38 | -0.41073 | -73.87067 | 39981 ft | 419 kts | 184° |
| 2026-05-06 18:39 | -0.46912 | -73.87350 | 39979 ft | 419 kts | 184° |
| 2026-05-06 18:40 | -0.55627 | -73.87769 | 39982 ft | 419 kts | 184° |
| 2026-05-06 18:40 | -0.61462 | -73.88052 | 39982 ft | 419 kts | 184° |
| 2026-05-06 18:41 | -0.67298 | -73.88335 | 39982 ft | 419 kts | 184° |
| 2026-05-06 18:41 | -0.73095 | -73.88616 | 39983 ft | 419 kts | 184° |
| 2026-05-06 18:42 | -0.78926 | -73.88897 | 39980 ft | 419 kts | 183° |
| 2026-05-06 18:42 | -0.84766 | -73.89180 | 39980 ft | 420 kts | 183° |
| 2026-05-06 18:43 | -0.90605 | -73.89462 | 39980 ft | 420 kts | 183° |
| 2026-05-06 18:43 | -0.95462 | -73.89698 | 39980 ft | 420 kts | 183° |
| 2026-05-06 18:44 | -1.01311 | -73.89980 | 39983 ft | 420 kts | 183° |
| 2026-05-06 18:44 | -1.07159 | -73.90264 | 39983 ft | 420 kts | 183° |
| 2026-05-06 18:45 | -1.13011 | -73.90546 | 39981 ft | 421 kts | 184° |
| 2026-05-06 18:45 | -1.18839 | -73.90829 | 39981 ft | 421 kts | 183° |
| 2026-05-06 18:46 | -1.24701 | -73.91112 | 39981 ft | 421 kts | 183° |
| 2026-05-06 18:46 | -1.30572 | -73.91396 | 39981 ft | 421 kts | 184° |
| 2026-05-06 18:47 | -1.36398 | -73.91678 | 39979 ft | 422 kts | 184° |
| 2026-05-06 18:47 | -1.42265 | -73.91962 | 39980 ft | 422 kts | 184° |
| 2026-05-06 18:48 | -1.48134 | -73.92246 | 39983 ft | 422 kts | 184° |
| 2026-05-06 18:48 | -1.53997 | -73.92529 | 39983 ft | 422 kts | 184° |
| 2026-05-06 18:49 | -1.59862 | -73.92813 | 39982 ft | 422 kts | 184° |
| 2026-05-06 18:49 | -1.65727 | -73.93098 | 39985 ft | 422 kts | 184° |
| 2026-05-06 18:50 | -1.71552 | -73.93379 | 39981 ft | 422 kts | 184° |
| 2026-05-06 18:50 | -1.77414 | -73.93664 | 39984 ft | 422 kts | 184° |
| 2026-05-06 18:51 | -1.83276 | -73.93948 | 39987 ft | 422 kts | 184° |
| 2026-05-06 18:51 | -1.89135 | -73.94231 | 39986 ft | 421 kts | 185° |
| 2026-05-06 18:52 | -1.94984 | -73.94514 | 39986 ft | 420 kts | 185° |
| 2026-05-06 18:52 | -2.00822 | -73.94796 | 39986 ft | 420 kts | 185° |
| 2026-05-06 18:53 | -2.06658 | -73.95079 | 39984 ft | 419 kts | 185° |
| 2026-05-06 18:53 | -2.12496 | -73.95362 | 39983 ft | 419 kts | 185° |
| 2026-05-06 18:54 | -2.18296 | -73.95644 | 39983 ft | 419 kts | 185° |
| 2026-05-06 18:54 | -2.24126 | -73.95926 | 39983 ft | 418 kts | 185° |
| 2026-05-06 18:55 | -2.29943 | -73.96208 | 39984 ft | 418 kts | 185° |
| 2026-05-06 18:55 | -2.35759 | -73.96490 | 39984 ft | 417 kts | 185° |
| 2026-05-06 18:56 | -2.41527 | -73.96770 | 39984 ft | 417 kts | 185° |
| 2026-05-06 18:56 | -2.47340 | -73.97052 | 39983 ft | 417 kts | 185° |
| 2026-05-06 18:57 | -2.53139 | -73.97332 | 39980 ft | 417 kts | 185° |
| 2026-05-06 18:57 | -2.58933 | -73.97613 | 39979 ft | 417 kts | 185° |
| 2026-05-06 18:58 | -2.64704 | -73.97894 | 39982 ft | 417 kts | 185° |
| 2026-05-06 18:58 | -2.70519 | -73.98174 | 39981 ft | 418 kts | 185° |
| 2026-05-06 18:59 | -2.76329 | -73.98455 | 39981 ft | 418 kts | 185° |
| 2026-05-06 18:59 | -2.82111 | -73.98735 | 39987 ft | 418 kts | 185° |
| 2026-05-06 19:00 | -2.87939 | -73.99018 | 39984 ft | 418 kts | 185° |
| 2026-05-06 19:00 | -2.93755 | -73.99302 | 39985 ft | 418 kts | 185° |
| 2026-05-06 19:01 | -2.99553 | -73.99582 | 39986 ft | 418 kts | 185° |
| 2026-05-06 19:01 | -3.05370 | -73.99865 | 39987 ft | 418 kts | 185° |
| 2026-05-06 19:02 | -3.11190 | -74.00148 | 39992 ft | 418 kts | 185° |
| 2026-05-06 19:02 | -3.16967 | -74.00426 | 39992 ft | 418 kts | 185° |
| 2026-05-06 19:03 | -3.22788 | -74.00709 | 39990 ft | 421 kts | 185° |
| 2026-05-06 19:03 | -3.28754 | -74.00999 | 39992 ft | 435 kts | 185° |
| 2026-05-06 19:04 | -3.34886 | -74.01296 | 39990 ft | 446 kts | 185° |
| 2026-05-06 19:04 | -3.41145 | -74.01602 | 39993 ft | 454 kts | 185° |
| 2026-05-06 19:05 | -3.47460 | -74.01907 | 39997 ft | 460 kts | 185° |
| 2026-05-06 19:05 | -3.53888 | -74.02218 | 39995 ft | 465 kts | 185° |
| 2026-05-06 19:06 | -3.60421 | -74.02535 | 39993 ft | 469 kts | 185° |
| 2026-05-06 19:06 | -3.66914 | -74.02851 | 39996 ft | 471 kts | 185° |
| 2026-05-06 19:07 | -3.73481 | -74.03172 | 39992 ft | 473 kts | 185° |
| 2026-05-06 19:07 | -3.80076 | -74.03490 | 39995 ft | 475 kts | 185° |
| 2026-05-06 19:08 | -3.86688 | -74.03813 | 39988 ft | 476 kts | 185° |
| 2026-05-06 19:08 | -3.93320 | -74.04135 | 39991 ft | 477 kts | 185° |
| 2026-05-06 19:09 | -3.99956 | -74.04458 | 39990 ft | 477 kts | 185° |
| 2026-05-06 19:09 | -4.06554 | -74.04779 | 39991 ft | 478 kts | 185° |
| 2026-05-06 19:10 | -4.13207 | -74.05102 | 39993 ft | 478 kts | 185° |
| 2026-05-06 19:10 | -4.19803 | -74.05731 | 39984 ft | 475 kts | 194° |
| 2026-05-06 19:11 | -4.26181 | -74.07447 | 39982 ft | 474 kts | 197° |
| 2026-05-06 19:11 | -4.32514 | -74.09183 | 39984 ft | 474 kts | 197° |
| 2026-05-06 19:12 | -4.38884 | -74.10926 | 39986 ft | 475 kts | 197° |
| 2026-05-06 19:12 | -4.45276 | -74.12678 | 39985 ft | 476 kts | 196° |
| 2026-05-06 19:13 | -4.51680 | -74.14434 | 39987 ft | 476 kts | 196° |
| 2026-05-06 19:13 | -4.58079 | -74.16188 | 39986 ft | 477 kts | 196° |
| 2026-05-06 19:14 | -4.64453 | -74.17935 | 39989 ft | 477 kts | 196° |
| 2026-05-06 19:14 | -4.70868 | -74.19694 | 39983 ft | 478 kts | 196° |
| 2026-05-06 19:15 | -4.77290 | -74.21456 | 39988 ft | 478 kts | 195° |
| 2026-05-06 19:15 | -4.83711 | -74.23218 | 39988 ft | 479 kts | 195° |
| 2026-05-06 19:16 | -4.90149 | -74.24984 | 39984 ft | 479 kts | 195° |
| 2026-05-06 19:16 | -4.96549 | -74.26741 | 39985 ft | 479 kts | 195° |
| 2026-05-06 19:17 | -5.02989 | -74.28508 | 39986 ft | 479 kts | 195° |
| 2026-05-06 19:17 | -5.09391 | -74.30266 | 39983 ft | 479 kts | 195° |
| 2026-05-06 19:18 | -5.15831 | -74.32035 | 39977 ft | 479 kts | 195° |
| 2026-05-06 19:18 | -5.22283 | -74.33807 | 39975 ft | 480 kts | 195° |
| 2026-05-06 19:19 | -5.28660 | -74.35560 | 39975 ft | 466 kts | 195° |
| 2026-05-06 19:19 | -5.34799 | -74.37246 | 39971 ft | 455 kts | 195° |
| 2026-05-06 19:20 | -5.40855 | -74.38910 | 39966 ft | 447 kts | 195° |
| 2026-05-06 19:20 | -5.46817 | -74.40548 | 39960 ft | 441 kts | 195° |
| 2026-05-06 19:21 | -5.52718 | -74.42171 | 39962 ft | 438 kts | 195° |
| 2026-05-06 19:21 | -5.58544 | -74.43773 | 39959 ft | 436 kts | 195° |
| 2026-05-06 19:22 | -5.64379 | -74.45378 | 39958 ft | 431 kts | 195° |
| 2026-05-06 19:22 | -5.70109 | -74.46955 | 39959 ft | 421 kts | 195° |
| 2026-05-06 19:23 | -5.75722 | -74.48499 | 39955 ft | 414 kts | 194° |
| 2026-05-06 19:23 | -5.81225 | -74.50012 | 39959 ft | 409 kts | 195° |
| 2026-05-06 19:24 | -5.86699 | -74.51521 | 39959 ft | 405 kts | 195° |
| 2026-05-06 19:24 | -5.92106 | -74.53008 | 39850 ft | 405 kts | 195° |
| 2026-05-06 19:24 | -5.94862 | -74.53767 | 39336 ft | 418 kts | 195° |
| 2026-05-06 19:25 | -5.97716 | -74.54554 | 38771 ft | 431 kts | 195° |
| 2026-05-06 19:25 | -6.00644 | -74.55360 | 38141 ft | 441 kts | 194° |
| 2026-05-06 19:25 | -6.03637 | -74.56185 | 37504 ft | 449 kts | 195° |
| 2026-05-06 19:25 | -6.06669 | -74.57018 | 36889 ft | 455 kts | 194° |
| 2026-05-06 19:26 | -6.09740 | -74.57867 | 36293 ft | 460 kts | 194° |
| 2026-05-06 19:26 | -6.12842 | -74.58719 | 35709 ft | 464 kts | 194° |
| 2026-05-06 19:26 | -6.15971 | -74.59585 | 35135 ft | 466 kts | 194° |
| 2026-05-06 19:26 | -6.19022 | -74.60424 | 34581 ft | 453 kts | 194° |
| 2026-05-06 19:27 | -6.22023 | -74.61255 | 34025 ft | 441 kts | 194° |
| 2026-05-06 19:27 | -6.24952 | -74.62059 | 33396 ft | 431 kts | 194° |
| 2026-05-06 19:27 | -6.27820 | -74.62851 | 32773 ft | 424 kts | 194° |
| 2026-05-06 19:27 | -6.30617 | -74.63620 | 32167 ft | 417 kts | 194° |
| 2026-05-06 19:28 | -6.33397 | -74.64390 | 31572 ft | 411 kts | 194° |
| 2026-05-06 19:28 | -6.36142 | -74.65144 | 30987 ft | 406 kts | 194° |
| 2026-05-06 19:28 | -6.38855 | -74.65895 | 30416 ft | 402 kts | 194° |
| 2026-05-06 19:28 | -6.41543 | -74.66633 | 29819 ft | 398 kts | 194° |
| 2026-05-06 19:29 | -6.44251 | -74.67383 | 29153 ft | 416 kts | 194° |
| 2026-05-06 19:29 | -6.47131 | -74.68170 | 28533 ft | 450 kts | 194° |
| 2026-05-06 19:29 | -6.50247 | -74.69036 | 28016 ft | 475 kts | 194° |
| 2026-05-06 19:29 | -6.53476 | -74.69926 | 27987 ft | 484 kts | 194° |
| 2026-05-06 19:30 | -6.55634 | -74.70525 | 27989 ft | 488 kts | 194° |
| 2026-05-06 19:30 | -6.58927 | -74.71431 | 27988 ft | 493 kts | 194° |
| 2026-05-06 19:30 | -6.62251 | -74.72350 | 27988 ft | 496 kts | 194° |
| 2026-05-06 19:30 | -6.65596 | -74.73274 | 27989 ft | 499 kts | 194° |
| 2026-05-06 19:31 | -6.68950 | -74.74199 | 27988 ft | 501 kts | 194° |
| 2026-05-06 19:31 | -6.72320 | -74.75133 | 27977 ft | 503 kts | 194° |
| 2026-05-06 19:31 | -6.79156 | -74.77021 | 27495 ft | 513 kts | 194° |
| 2026-05-06 19:32 | -6.82612 | -74.77973 | 27255 ft | 516 kts | 194° |
| 2026-05-06 19:32 | -6.86081 | -74.78935 | 27018 ft | 517 kts | 194° |
| 2026-05-06 19:32 | -6.89549 | -74.79891 | 26783 ft | 509 kts | 194° |
| 2026-05-06 19:32 | -6.92782 | -74.80792 | 26549 ft | 469 kts | 194° |
| 2026-05-06 19:33 | -6.95869 | -74.81641 | 26308 ft | 456 kts | 194° |
| 2026-05-06 19:33 | -6.98923 | -74.82484 | 26065 ft | 453 kts | 194° |
| 2026-05-06 19:33 | -7.01945 | -74.83318 | 25990 ft | 447 kts | 194° |
| 2026-05-06 19:33 | -7.04927 | -74.84148 | 25988 ft | 442 kts | 194° |
| 2026-05-06 19:34 | -7.07885 | -74.84963 | 25980 ft | 438 kts | 194° |
| 2026-05-06 19:34 | -7.10817 | -74.85776 | 25978 ft | 435 kts | 194° |
| 2026-05-06 19:34 | -7.13734 | -74.86581 | 25978 ft | 432 kts | 194° |
| 2026-05-06 19:34 | -7.16633 | -74.87385 | 25979 ft | 431 kts | 194° |
| 2026-05-06 19:35 | -7.19515 | -74.88182 | 25981 ft | 429 kts | 194° |
| 2026-05-06 19:35 | -7.22353 | -74.88968 | 25984 ft | 428 kts | 194° |
| 2026-05-06 19:35 | -7.25221 | -74.89760 | 25981 ft | 427 kts | 194° |
| 2026-05-06 19:35 | -7.28086 | -74.90556 | 25981 ft | 426 kts | 194° |
| 2026-05-06 19:36 | -7.30948 | -74.91348 | 25981 ft | 426 kts | 194° |
| 2026-05-06 19:36 | -7.33806 | -74.92139 | 25984 ft | 426 kts | 194° |
| 2026-05-06 19:36 | -7.36666 | -74.92931 | 25986 ft | 425 kts | 194° |
| 2026-05-06 19:36 | -7.39518 | -74.93722 | 25986 ft | 425 kts | 194° |
| 2026-05-06 19:37 | -7.42374 | -74.94514 | 25984 ft | 425 kts | 194° |
| 2026-05-06 19:37 | -7.45199 | -74.95296 | 25983 ft | 425 kts | 194° |
| 2026-05-06 19:37 | -7.48055 | -74.96088 | 25982 ft | 425 kts | 194° |
| 2026-05-06 19:37 | -7.50912 | -74.96879 | 25981 ft | 424 kts | 194° |
| 2026-05-06 19:38 | -7.53764 | -74.97671 | 25982 ft | 424 kts | 194° |
| 2026-05-06 19:38 | -7.56612 | -74.98459 | 25980 ft | 424 kts | 194° |
| 2026-05-06 19:38 | -7.59460 | -74.99251 | 25982 ft | 424 kts | 194° |
| 2026-05-06 19:38 | -7.62270 | -75.00028 | 25980 ft | 424 kts | 194° |
| 2026-05-06 19:39 | -7.65122 | -75.00822 | 25983 ft | 424 kts | 194° |
| 2026-05-06 19:39 | -7.67964 | -75.01608 | 25982 ft | 424 kts | 194° |
| 2026-05-06 19:39 | -7.70810 | -75.02399 | 25983 ft | 424 kts | 194° |
| 2026-05-06 19:39 | -7.73656 | -75.03187 | 25983 ft | 424 kts | 194° |
| 2026-05-06 19:40 | -7.76496 | -75.03979 | 25981 ft | 423 kts | 194° |
| 2026-05-06 19:40 | -7.79341 | -75.04765 | 25985 ft | 423 kts | 194° |
| 2026-05-06 19:40 | -7.82185 | -75.05556 | 25989 ft | 423 kts | 194° |
| 2026-05-06 19:40 | -7.84991 | -75.06334 | 25988 ft | 423 kts | 194° |
| 2026-05-06 19:41 | -7.87835 | -75.07126 | 25985 ft | 424 kts | 194° |
| 2026-05-06 19:41 | -7.90679 | -75.07913 | 25985 ft | 424 kts | 194° |
| 2026-05-06 19:41 | -7.93571 | -75.08718 | 25985 ft | 440 kts | 194° |
| 2026-05-06 19:41 | -7.96591 | -75.09554 | 25992 ft | 457 kts | 194° |
| 2026-05-06 19:42 | -7.99705 | -75.10423 | 26004 ft | 469 kts | 194° |
| 2026-05-06 19:42 | -8.02882 | -75.11304 | 26000 ft | 470 kts | 194° |
| 2026-05-06 19:42 | -8.05920 | -75.12155 | 26000 ft | 437 kts | 194° |
| 2026-05-06 19:42 | -8.08763 | -75.12941 | 25990 ft | 410 kts | 194° |
| 2026-05-06 19:43 | -8.11447 | -75.13690 | 25979 ft | 390 kts | 194° |
| 2026-05-06 19:43 | -8.13970 | -75.14387 | 25980 ft | 373 kts | 194° |
| 2026-05-06 19:43 | -8.16424 | -75.15075 | 25980 ft | 359 kts | 194° |
| 2026-05-06 19:43 | -8.18788 | -75.15729 | 25982 ft | 347 kts | 194° |
| 2026-05-06 19:44 | -8.21083 | -75.16368 | 25982 ft | 337 kts | 194° |
| 2026-05-06 19:44 | -8.23321 | -75.16990 | 25978 ft | 328 kts | 194° |
| 2026-05-06 19:44 | -8.25499 | -75.17597 | 25978 ft | 321 kts | 194° |
| 2026-05-06 19:44 | -8.27635 | -75.18190 | 25977 ft | 315 kts | 194° |
| 2026-05-06 19:45 | -8.29732 | -75.18774 | 25977 ft | 310 kts | 194° |
| 2026-05-06 19:45 | -8.31798 | -75.19349 | 25978 ft | 306 kts | 194° |
| 2026-05-06 19:45 | -8.33815 | -75.19911 | 25980 ft | 302 kts | 194° |
| 2026-05-06 19:45 | -8.35830 | -75.20470 | 25979 ft | 299 kts | 194° |
| 2026-05-06 19:46 | -8.37831 | -75.21030 | 25974 ft | 296 kts | 194° |
| 2026-05-06 19:46 | -8.39814 | -75.21579 | 25976 ft | 294 kts | 194° |
| 2026-05-06 19:46 | -8.41780 | -75.22128 | 25974 ft | 292 kts | 194° |
| 2026-05-06 19:46 | -8.43792 | -75.22688 | 25979 ft | 315 kts | 194° |
| 2026-05-06 19:47 | -8.46043 | -75.23312 | 25998 ft | 353 kts | 194° |
| 2026-05-06 19:47 | -8.48494 | -75.23993 | 26005 ft | 386 kts | 194° |
| 2026-05-06 19:47 | -8.51179 | -75.24746 | 25999 ft | 414 kts | 194° |
| 2026-05-06 19:47 | -8.54047 | -75.25543 | 26000 ft | 437 kts | 194° |
| 2026-05-06 19:48 | -8.57049 | -75.26383 | 25999 ft | 454 kts | 194° |
| 2026-05-06 19:48 | -8.60150 | -75.27245 | 25996 ft | 468 kts | 194° |
| 2026-05-06 19:48 | -8.63280 | -75.28119 | 25997 ft | 477 kts | 195° |
| 2026-05-06 19:48 | -8.66504 | -75.29018 | 25989 ft | 484 kts | 194° |
| 2026-05-06 19:49 | -8.69770 | -75.29931 | 25993 ft | 489 kts | 194° |
| 2026-05-06 19:49 | -8.73070 | -75.30847 | 25989 ft | 492 kts | 194° |
| 2026-05-06 19:49 | -8.76380 | -75.31775 | 25990 ft | 495 kts | 195° |
| 2026-05-06 19:49 | -8.79716 | -75.32706 | 25776 ft | 501 kts | 195° |
| 2026-05-06 19:50 | -8.83023 | -75.33960 | 25197 ft | 513 kts | 205° |
| 2026-05-06 19:50 | -8.86082 | -75.35789 | 24606 ft | 521 kts | 215° |
| 2026-05-06 19:50 | -8.88700 | -75.38362 | 23928 ft | 529 kts | 230° |
| 2026-05-06 19:50 | -8.90838 | -75.41411 | 23187 ft | 533 kts | 237° |
| 2026-05-06 19:51 | -8.92734 | -75.44609 | 22293 ft | 513 kts | 240° |
| 2026-05-06 19:51 | -8.94377 | -75.47649 | 21445 ft | 473 kts | 241° |
| 2026-05-06 19:51 | -8.95827 | -75.50515 | 20618 ft | 444 kts | 244° |
| 2026-05-06 19:51 | -8.97003 | -75.53329 | 19796 ft | 423 kts | 248° |
| 2026-05-06 19:52 | -8.98025 | -75.56066 | 18997 ft | 408 kts | 249° |
| 2026-05-06 19:52 | -8.98967 | -75.58723 | 18216 ft | 395 kts | 249° |
| 2026-05-06 19:52 | -8.99845 | -75.61278 | 17335 ft | 384 kts | 250° |
| 2026-05-06 19:52 | -9.00505 | -75.63861 | 16467 ft | 376 kts | 257° |
| 2026-05-06 19:53 | -9.00981 | -75.66441 | 15640 ft | 369 kts | 259° |
| 2026-05-06 19:53 | -9.01384 | -75.68986 | 14825 ft | 364 kts | 261° |
| 2026-05-06 19:53 | -9.01636 | -75.71525 | 14027 ft | 361 kts | 264° |
| 2026-05-06 19:53 | -9.01832 | -75.74039 | 13174 ft | 357 kts | 264° |
| 2026-05-06 19:54 | -9.02005 | -75.76528 | 12312 ft | 353 kts | 265° |
| 2026-05-06 19:54 | -9.02173 | -75.78999 | 11471 ft | 351 kts | 265° |
| 2026-05-06 19:54 | -9.02329 | -75.81412 | 11016 ft | 329 kts | 264° |
| 2026-05-06 19:54 | -9.02464 | -75.83632 | 11000 ft | 307 kts | 265° |
| 2026-05-06 19:55 | -9.02591 | -75.85730 | 10998 ft | 291 kts | 264° |
| 2026-05-06 19:55 | -9.02713 | -75.87698 | 10992 ft | 278 kts | 265° |
| 2026-05-06 19:55 | -9.02830 | -75.89610 | 10996 ft | 267 kts | 265° |
| 2026-05-06 19:55 | -9.02955 | -75.91472 | 10836 ft | 266 kts | 264° |
| 2026-05-06 19:56 | -9.03072 | -75.93352 | 10599 ft | 269 kts | 264° |
| 2026-05-06 19:56 | -9.03183 | -75.95260 | 10252 ft | 276 kts | 265° |
| 2026-05-06 19:56 | -9.03327 | -75.97233 | 9782 ft | 283 kts | 259° |
| 2026-05-06 19:56 | -9.04121 | -75.99042 | 9260 ft | 285 kts | 229° |
| 2026-05-06 19:57 | -9.05683 | -76.00259 | 8760 ft | 286 kts | 205° |
| 2026-05-06 19:57 | -9.07563 | -76.00916 | 8279 ft | 287 kts | 191° |
| 2026-05-06 19:57 | -9.09521 | -76.01024 | 7805 ft | 275 kts | 177° |
| 2026-05-06 19:57 | -9.11326 | -76.00857 | 7290 ft | 247 kts | 172° |
| 2026-05-06 19:58 | -9.12943 | -76.00606 | 6651 ft | 223 kts | 170° |
| 2026-05-06 19:58 | -9.14406 | -76.00332 | 5875 ft | 188 kts | 168° |
| 2026-05-06 19:58 | -9.15362 | -76.00136 | 4760 ft | 121 kts | 168° |
| 2026-05-06 19:58 | -9.16186 | -75.99977 | 3944 ft | 118 kts | 171° |
| 2026-05-06 19:59 | -9.16987 | -75.99867 | 3487 ft | 130 kts | 172° |
| 2026-05-06 19:59 | -9.17915 | -75.99752 | 3392 ft | 136 kts | 172° |
| 2026-05-06 19:59 | -9.18856 | -75.99629 | 3293 ft | 136 kts | 172° |
| 2026-05-06 19:59 | -9.19781 | -75.99494 | 3227 ft | 136 kts | 169° |
| 2026-05-06 20:00 | -9.20721 | -75.99372 | 3131 ft | 137 kts | 175° |
| 2026-05-06 20:00 | -9.21680 | -75.99392 | 3038 ft | 138 kts | 184° |
| 2026-05-06 20:00 | -9.22634 | -75.99531 | 3001 ft | 137 kts | 191° |
| 2026-05-06 20:00 | -9.23507 | -75.99731 | 2902 ft | 127 kts | 193° |
| 2026-05-06 20:01 | -9.24415 | -75.99934 | 2844 ft | 137 kts | 189° |
| 2026-05-06 20:01 | -9.25367 | -76.00104 | 2716 ft | 140 kts | 189° |
| 2026-05-06 20:01 | -9.26296 | -76.00231 | 2541 ft | 124 kts | 188° |
| 2026-05-06 20:01 | -9.27102 | -76.00332 | 2361 ft | 118 kts | 187° |
| 2026-05-06 20:02 | -9.27955 | -76.00408 | 2203 ft | 126 kts | 185° |
| 2026-05-06 20:02 | -9.28635 | -76.00478 | 2111 ft | 71 kts | 184° |
| 2026-05-06 20:02 | -9.29051 | -76.00510 | 2109 ft | 54 kts | 186° |
| 2026-05-06 20:02 | -9.29386 | -76.00542 | 2114 ft | 44 kts | 186° |
| 2026-05-06 20:03 | -9.29585 | -76.00521 | 2118 ft | 20 kts | 158° |
| 2026-05-06 20:03 | -9.29685 | -76.00503 | 2121 ft | 9 kts | 150° |
| 2026-05-06 20:03 | -9.29723 | -76.00497 | 2122 ft | 2 kts | 239° |
| 2026-05-06 20:03 | -9.29724 | -76.00502 | 2124 ft | 0 kts | 276° |